Time;durP1;ratioP1;P1;durP2;ratioP2;P2;SDS_P1;SDS_P2;PMS_P1;PMS_P2;Temp;Humidity;BMP_temperature;BMP_pressure;BME280_temperature;BME280_humidity;BME280_pressure;Samples;Min_cycle;Max_cycle;Signal;HPM_P1;HPM_P2
2022/05/10 00:04:58;;;;;;;5.00;2.70;;;23.20;49.90;;;;;;220234;1270;22531;-53
2022/05/10 00:10:09;;;;;;;6.80;2.90;;;23.20;50.30;;;;;;219995;1270;25491;-53
2022/05/10 00:15:13;;;;;;;;;;;23.20;50.30;;;;;;220349;1271;22459;-55
2022/05/10 00:20:23;;;;;;;5.10;2.20;;;23.10;50.30;;;;;;220336;1270;22537;-53
2022/05/10 00:25:29;;;;;;;5.40;2.60;;;23.10;50.50;;;;;;220171;1268;22563;-55
2022/05/10 00:30:34;;;;;;;6.20;2.50;;;23.10;50.50;;;;;;220097;1270;24298;-52
2022/05/10 00:35:38;;;;;;;4.50;2.40;;;23.00;50.50;;;;;;220170;1268;22531;-54
2022/05/10 00:40:43;;;;;;;5.70;2.60;;;23.00;50.70;;;;;;220022;1270;22682;-54
2022/05/10 00:46:12;;;;;;;5.90;2.80;;;23.00;50.70;;;;;;220506;1271;24358;-52
2022/05/10 00:51:22;;;;;;;4.50;2.40;;;23.00;50.70;;;;;;220540;1268;22687;-56
2022/05/10 00:56:41;;;;;;;6.30;2.40;;;23.00;51.10;;;;;;220659;1269;22568;-55
2022/05/10 01:01:49;;;;;;;3.50;2.10;;;23.00;50.80;;;;;;220515;1268;25513;-50
2022/05/10 01:07:00;;;;;;;5.80;2.20;;;22.90;51.10;;;;;;220058;1271;23932;-51
2022/05/10 01:12:19;;;;;;;4.70;2.10;;;23.00;51.10;;;;;;220350;1268;22850;-52
2022/05/10 01:17:24;;;;;;;4.40;2.20;;;23.00;51.10;;;;;;220412;1269;25462;-55
2022/05/10 01:22:54;;;;;;;4.50;2.40;;;22.90;51.10;;;;;;220425;1268;22560;-52
2022/05/10 01:28:26;;;;;;;4.40;2.30;;;22.90;50.90;;;;;;220143;1271;24101;-54
2022/05/10 01:33:47;;;;;;;5.50;2.00;;;22.90;51.20;;;;;;220760;1271;22724;-56
2022/05/10 01:39:14;;;;;;;3.80;2.10;;;22.90;50.80;;;;;;220613;1268;22592;-57
2022/05/10 01:44:34;;;;;;;5.90;2.50;;;22.80;50.90;;;;;;220277;1268;22591;-50
2022/05/10 01:49:49;;;;;;;4.00;2.30;;;22.80;51.00;;;;;;220213;1268;25264;-52
2022/05/10 01:54:59;;;;;;;4.80;2.50;;;22.80;51.10;;;;;;220782;1271;24422;-54
2022/05/10 02:00:06;;;;;;;;;;;22.80;51.20;;;;;;220858;1268;24252;-53
2022/05/10 02:05:28;;;;;;;4.60;2.40;;;22.80;51.10;;;;;;220775;1269;24303;-51
2022/05/10 02:10:40;;;;;;;4.90;2.30;;;22.80;51.20;;;;;;220095;1272;25462;-56
2022/05/10 02:15:53;;;;;;;5.40;2.20;;;22.70;51.60;;;;;;220029;1271;25344;-51
2022/05/10 02:21:12;;;;;;;4.30;2.10;;;22.70;51.70;;;;;;220232;1271;22721;-52
2022/05/10 02:26:35;;;;;;;7.10;2.20;;;22.80;51.40;;;;;;220174;1272;24313;-56
2022/05/10 02:37:21;;;;;;;4.10;2.10;;;22.70;51.50;;;;;;220029;1271;25312;-48
2022/05/10 02:42:29;;;;;;;3.50;2.10;;;22.70;51.60;;;;;;220107;1271;22843;-55
2022/05/10 02:47:45;;;;;;;;;;;22.70;51.70;;;;;;220022;1271;24329;-55
2022/05/10 02:52:51;;;;;;;4.20;2.10;;;22.70;51.80;;;;;;220170;1270;23857;-52
2022/05/10 02:58:11;;;;;;;6.00;2.30;;;22.70;52.30;;;;;;220063;1271;22638;-55
2022/05/10 03:03:23;;;;;;;4.80;2.20;;;22.60;51.90;;;;;;220149;1271;23934;-51
2022/05/10 03:08:28;;;;;;;5.90;2.00;;;22.60;52.10;;;;;;220210;1268;22585;-54
2022/05/10 03:13:35;;;;;;;3.60;2.20;;;22.60;51.80;;;;;;220489;1268;22541;-55
2022/05/10 03:18:40;;;;;;;5.50;2.10;;;22.60;51.70;;;;;;220339;1268;22555;-55
2022/05/10 03:23:48;;;;;;;3.70;2.00;;;22.60;51.80;;;;;;220368;1268;22833;-55
2022/05/10 03:28:54;;;;;;;3.10;1.90;;;22.60;51.80;;;;;;220394;1268;22560;-52
2022/05/10 03:39:22;;;;;;;3.40;2.10;;;22.60;51.80;;;;;;220299;1268;24511;-52
2022/05/10 03:44:30;;;;;;;4.80;2.60;;;22.50;52.00;;;;;;220336;1268;22560;-53
2022/05/10 03:49:35;;;;;;;4.90;2.30;;;22.50;51.70;;;;;;220533;1268;24947;-54
2022/05/10 03:54:42;;;;;;;4.90;2.10;;;22.50;52.10;;;;;;220009;1268;24366;-55
2022/05/10 03:59:46;;;;;;;3.80;1.80;;;22.50;51.70;;;;;;220423;1269;22803;-53
2022/05/10 04:04:50;;;;;;;4.00;2.20;;;22.50;51.60;;;;;;220183;1268;25356;-42
2022/05/10 04:09:53;;;;;;;4.20;1.90;;;22.50;51.60;;;;;;220411;1268;22627;-41
2022/05/10 04:14:57;;;;;;;4.20;1.80;;;22.50;51.70;;;;;;220709;1268;24499;-43
2022/05/10 04:20:02;;;;;;;4.40;2.40;;;22.50;51.70;;;;;;220571;1268;22532;-44
2022/05/10 04:25:07;;;;;;;3.30;2.00;;;22.50;51.70;;;;;;220161;1270;24422;-44
2022/05/10 04:30:17;;;;;;;4.00;2.00;;;22.50;51.70;;;;;;220472;1268;25463;-43
2022/05/10 04:35:24;;;;;;;4.20;1.90;;;22.40;52.00;;;;;;220814;1268;25206;-44
2022/05/10 04:45:54;;;;;;;3.40;1.70;;;22.40;51.60;;;;;;220110;1268;23930;-43
2022/05/10 04:51:05;;;;;;;4.50;1.70;;;22.40;52.00;;;;;;219791;1273;25506;-43
2022/05/10 04:56:18;;;;;;;3.20;1.80;;;22.40;52.10;;;;;;220400;1268;22595;-42
2022/05/10 05:01:26;;;;;;;3.10;1.70;;;22.40;51.60;;;;;;220302;1268;24721;-44
2022/05/10 05:06:31;;;;;;;3.50;2.00;;;22.40;51.80;;;;;;220548;1268;25345;-43
2022/05/10 05:11:34;;;;;;;3.90;1.80;;;22.40;52.10;;;;;;220629;1268;24250;-42
2022/05/10 05:16:38;;;;;;;6.00;2.30;;;22.40;51.90;;;;;;220294;1268;24368;-43
2022/05/10 05:21:44;;;;;;;3.40;2.10;;;22.40;51.90;;;;;;220221;1268;23202;-45
2022/05/10 05:26:48;;;;;;;4.40;2.10;;;22.40;51.90;;;;;;220308;1270;22531;-46
2022/05/10 05:31:53;;;;;;;3.30;1.90;;;22.40;52.00;;;;;;220331;1268;22554;-45
2022/05/10 05:42:22;;;;;;;4.20;2.10;;;22.40;52.00;;;;;;220545;1268;23154;-42
2022/05/10 05:47:26;;;;;;;4.30;1.50;;;22.40;52.10;;;;;;220362;1267;22545;-45
2022/05/10 05:52:32;;;;;;;10.80;2.40;;;22.50;52.40;;;;;;220079;1270;22598;-49
2022/05/10 05:57:37;;;;;;;8.90;2.40;;;22.50;52.80;;;;;;220282;1270;25255;-42
2022/05/10 06:02:42;;;;;;;8.60;2.60;;;22.50;52.40;;;;;;220189;1268;24197;-44
2022/05/10 06:07:46;;;;;;;14.60;3.60;;;22.50;51.90;;;;;;220225;1268;22535;-44
2022/05/10 06:12:53;;;;;;;9.00;2.80;;;22.50;50.80;;;;;;220101;1268;23051;-44
2022/05/10 06:18:03;;;;;;;8.40;3.00;;;22.50;49.80;;;;;;219958;1270;22998;-44
2022/05/10 06:23:09;;;;;;;16.70;3.20;;;22.40;50.40;;;;;;220327;1268;24330;-43
2022/05/10 06:28:13;;;;;;;11.30;3.20;;;22.40;49.80;;;;;;220723;1268;25536;-43
2022/05/10 06:33:27;;;;;;;11.90;3.70;;;22.40;48.30;;;;;;220605;1268;22686;-44
2022/05/10 06:38:36;;;;;;;11.50;3.50;;;22.50;50.10;;;;;;220366;1268;22588;-45
2022/05/10 06:43:45;;;;;;;7.70;2.90;;;22.50;50.60;;;;;;220498;1268;22578;-44
2022/05/10 06:48:56;;;;;;;15.90;3.30;;;22.60;51.00;;;;;;220067;1268;24240;-43
2022/05/10 06:54:01;;;;;;;14.50;3.60;;;22.70;51.10;;;;;;220352;1268;23934;-45
2022/05/10 06:59:05;;;;;;;9.10;3.00;;;22.70;51.60;;;;;;220332;1268;25223;-44
2022/05/10 07:04:09;;;;;;;10.60;2.90;;;22.70;51.30;;;;;;220124;1268;22537;-45
2022/05/10 07:09:14;;;;;;;8.80;2.90;;;22.60;50.50;;;;;;220239;1268;22687;-43
2022/05/10 07:14:20;;;;;;;20.40;4.10;;;22.60;50.60;;;;;;220134;1268;23054;-43
2022/05/10 07:19:25;;;;;;;11.80;3.20;;;22.70;51.00;;;;;;219870;1268;327534;-43
2022/05/10 07:24:29;;;;;;;10.40;3.10;;;22.70;50.60;;;;;;220180;1268;24232;-44
2022/05/10 07:29:34;;;;;;;9.20;3.10;;;22.70;51.20;;;;;;219782;1270;22543;-42
2022/05/10 07:34:47;;;;;;;7.40;3.00;;;22.70;51.10;;;;;;220222;1268;25739;-44
2022/05/10 07:39:58;;;;;;;12.50;3.10;;;22.80;51.00;;;;;;220018;1269;22544;-46
2022/05/10 07:45:08;;;;;;;8.40;3.00;;;22.80;51.00;;;;;;219833;1270;22554;-45
2022/05/10 07:50:12;;;;;;;11.20;3.10;;;22.70;51.00;;;;;;219948;1268;24249;-44
2022/05/10 07:55:19;;;;;;;7.70;2.80;;;22.80;51.10;;;;;;220664;1267;25475;-42
2022/05/10 08:00:23;;;;;;;10.90;3.10;;;22.80;51.10;;;;;;220001;1268;22660;-44
2022/05/10 08:05:27;;;;;;;8.80;3.40;;;22.80;51.10;;;;;;219976;1268;22682;-43
2022/05/10 08:10:35;;;;;;;5.80;2.90;;;22.80;51.10;;;;;;219866;1268;22601;-45
2022/05/10 08:15:40;;;;;;;6.90;2.80;;;22.90;51.20;;;;;;220091;1269;25356;-44
2022/05/10 08:20:50;;;;;;;5.40;2.60;;;22.90;51.40;;;;;;220236;1270;26156;-44
2022/05/10 08:25:56;;;;;;;5.50;2.90;;;22.90;51.00;;;;;;220135;1270;22723;-42
2022/05/10 08:31:04;;;;;;;7.60;2.60;;;22.90;50.90;;;;;;220336;1268;23572;-44
2022/05/10 08:36:09;;;;;;;9.10;2.70;;;22.90;50.90;;;;;;220232;1267;22569;-45
2022/05/10 08:41:40;;;;;;;5.30;2.70;;;23.00;51.00;;;;;;220097;1268;22575;-45
2022/05/10 08:46:49;;;;;;;4.90;2.40;;;23.00;51.10;;;;;;220179;1269;25124;-45
2022/05/10 08:51:58;;;;;;;6.80;2.50;;;23.00;51.80;;;;;;219871;1268;24208;-44
2022/05/10 08:57:24;;;;;;;9.00;3.10;;;23.00;51.80;;;;;;220038;1267;24290;-45
2022/05/10 09:02:37;;;;;;;4.10;2.40;;;23.00;51.70;;;;;;220003;1268;22543;-44
2022/05/10 09:08:24;;;;;;;5.40;2.60;;;23.10;51.60;;;;;;220116;1268;22695;-45
2022/05/10 09:13:28;;;;;;;4.80;2.50;;;23.10;51.30;;;;;;219939;1270;24401;-44
2022/05/10 09:18:45;;;;;;;5.60;2.50;;;23.20;51.20;;;;;;220823;1268;25403;-46
2022/05/10 09:24:26;;;;;;;4.30;2.60;;;23.20;51.40;;;;;;220445;1268;25392;-52
2022/05/10 09:29:44;;;;;;;6.90;2.80;;;23.30;51.10;;;;;;220450;1268;22563;-55
2022/05/10 09:35:14;;;;;;;6.10;2.50;;;23.20;50.80;;;;;;220412;1270;22598;-52
2022/05/10 09:40:34;;;;;;;4.70;2.30;;;23.30;50.90;;;;;;219948;1270;24238;-52
2022/05/10 09:45:40;;;;;;;4.60;2.40;;;23.30;51.10;;;;;;220372;1269;22548;-55
2022/05/10 09:50:51;;;;;;;3.50;2.30;;;23.30;50.80;;;;;;219948;1270;23006;-54
2022/05/10 09:56:08;;;;;;;5.60;2.60;;;23.30;50.70;;;;;;220169;1268;22567;-55
2022/05/10 10:01:13;;;;;;;4.50;2.40;;;23.30;51.30;;;;;;220198;1268;22525;-54
2022/05/10 10:06:23;;;;;;;4.80;2.30;;;23.30;50.80;;;;;;220367;1270;24310;-55
2022/05/10 10:11:34;;;;;;;5.20;2.50;;;23.40;50.50;;;;;;220565;1268;24246;-56
2022/05/10 10:16:51;;;;;;;5.70;2.40;;;23.40;50.50;;;;;;220217;1268;25412;-56
2022/05/10 10:22:04;;;;;;;7.20;2.90;;;23.40;50.60;;;;;;219947;1270;23948;-51
2022/05/10 10:27:17;;;;;;;5.40;2.80;;;23.50;50.70;;;;;;220009;1270;23198;-55
2022/05/10 10:32:40;;;;;;;9.30;3.50;;;23.50;50.70;;;;;;220516;1268;23949;-56
2022/05/10 10:38:12;;;;;;;7.80;3.70;;;23.50;50.80;;;;;;220457;1268;22820;-53
2022/05/10 10:43:23;;;;;;;16.50;4.80;;;23.60;51.10;;;;;;220082;1270;23143;-53
2022/05/10 10:48:36;;;;;;;17.60;5.30;;;23.60;50.80;;;;;;220057;1268;22546;-55
2022/05/10 10:53:40;;;;;;;12.30;4.50;;;23.60;50.80;;;;;;220456;1268;22621;-54
2022/05/10 10:59:21;;;;;;;16.80;5.70;;;23.60;50.70;;;;;;220531;1268;24347;-55
2022/05/10 11:04:56;;;;;;;8.90;3.50;;;23.70;51.00;;;;;;220363;1268;22557;-54
2022/05/10 11:10:33;;;;;;;13.90;5.40;;;23.70;50.50;;;;;;220247;1268;22720;-54
2022/05/10 11:15:44;;;;;;;16.00;5.20;;;23.70;50.40;;;;;;220187;1268;22676;-55
2022/05/10 11:21:11;;;;;;;12.50;4.30;;;23.70;50.50;;;;;;220470;1268;24217;-55
2022/05/10 11:26:28;;;;;;;9.40;4.10;;;23.70;50.40;;;;;;220017;1268;25443;-55
2022/05/10 11:31:54;;;;;;;10.90;4.40;;;23.80;50.80;;;;;;220174;1268;25311;-53
2022/05/10 11:37:01;;;;;;;8.70;3.60;;;23.80;50.80;;;;;;220128;1268;24380;-55
2022/05/10 11:42:49;;;;;;;13.50;4.10;;;23.80;50.50;;;;;;220234;1268;22696;-53
2022/05/10 11:48:12;;;;;;;13.00;4.90;;;23.80;50.50;;;;;;220065;1270;24260;-55
2022/05/10 11:53:45;;;;;;;9.80;4.30;;;23.90;53.80;;;;;;219984;1268;22576;-55
2022/05/10 11:58:55;;;;;;;10.00;3.90;;;24.00;53.90;;;;;;220201;1267;24454;-54
2022/05/10 12:03:59;;;;;;;12.90;4.30;;;24.00;53.30;;;;;;220160;1269;25443;-51
2022/05/10 12:09:16;;;;;;;11.90;4.50;;;24.00;51.30;;;;;;220245;1268;24300;-53
2022/05/10 12:25:59;;;;;;;10.00;4.00;;;24.10;51.70;;;;;;220537;1267;24425;-50
2022/05/10 12:31:23;;;;;;;12.20;4.10;;;24.10;51.60;;;;;;220469;1267;22566;-54
2022/05/10 12:36:32;;;;;;;9.80;4.20;;;24.10;51.60;;;;;;220205;1269;22684;-53
2022/05/10 12:42:13;;;;;;;9.30;3.60;;;24.10;51.60;;;;;;220137;1270;24719;-52
2022/05/10 12:47:26;;;;;;;9.20;4.30;;;24.10;52.50;;;;;;220240;1268;22553;-55
2022/05/10 12:52:43;;;;;;;10.60;4.00;;;24.30;53.80;;;;;;220234;1270;22583;-54
2022/05/10 12:58:08;;;;;;;10.30;3.60;;;24.30;56.60;;;;;;220096;1268;22544;-54
2022/05/10 13:03:22;;;;;;;8.90;4.30;;;24.40;56.00;;;;;;220234;1270;22716;-55
2022/05/10 13:09:04;;;;;;;9.50;4.10;;;24.40;56.70;;;;;;220313;1268;25537;-55
2022/05/10 13:14:16;;;;;;;7.30;3.50;;;24.40;57.00;;;;;;220024;1270;26821;-54
2022/05/10 13:19:24;;;;;;;8.10;3.80;;;24.30;57.50;;;;;;220174;1270;26702;-53
2022/05/10 13:24:33;;;;;;;11.10;3.20;;;24.40;56.70;;;;;;219894;1270;22540;-55
2022/05/10 13:29:50;;;;;;;8.50;4.20;;;24.40;56.50;;;;;;220026;1270;25247;-53
2022/05/10 13:35:01;;;;;;;13.30;5.10;;;24.40;56.60;;;;;;220044;1269;24289;-54
2022/05/10 13:40:36;;;;;;;20.80;6.60;;;24.40;57.00;;;;;;220310;1268;22643;-53
2022/05/10 13:45:42;;;;;;;9.80;4.80;;;24.40;56.10;;;;;;220179;1269;24180;-52
2022/05/10 13:50:49;;;;;;;15.70;4.30;;;24.40;54.40;;;;;;220187;1268;22563;-56
2022/05/10 13:55:55;;;;;;;10.00;4.00;;;24.40;54.10;;;;;;220159;1270;24221;-56
2022/05/10 14:00:59;;;;;;;9.20;4.00;;;24.50;48.70;;;;;;219923;1270;24274;-54
2022/05/10 14:06:08;;;;;;;10.90;4.00;;;24.50;47.80;;;;;;220325;1268;25436;-53
2022/05/10 14:11:19;;;;;;;10.90;4.00;;;24.50;49.20;;;;;;220157;1270;22623;-55
2022/05/10 14:16:36;;;;;;;6.90;2.80;;;24.40;48.90;;;;;;220225;1268;24676;-53
2022/05/10 14:21:43;;;;;;;9.70;3.60;;;24.50;44.70;;;;;;220401;1270;24216;-53
2022/05/10 14:26:51;;;;;;;7.60;3.50;;;24.50;44.30;;;;;;220329;1270;23916;-51
2022/05/10 14:32:20;;;;;;;8.60;3.60;;;24.50;43.80;;;;;;220262;1270;25168;-55
2022/05/10 14:37:31;;;;;;;8.30;3.30;;;24.50;42.90;;;;;;220364;1270;23017;-52
2022/05/10 14:42:39;;;;;;;7.50;3.30;;;24.50;43.50;;;;;;220284;1268;22546;-57
2022/05/10 14:47:49;;;;;;;6.90;3.50;;;24.50;43.30;;;;;;220100;1271;22547;-53
2022/05/10 14:53:15;;;;;;;6.60;3.50;;;24.50;43.80;;;;;;220240;1269;25292;-53
2022/05/10 14:58:39;;;;;;;8.50;3.50;;;24.30;43.60;;;;;;220239;1270;24307;-55
2022/05/10 15:04:01;;;;;;;5.20;3.00;;;24.40;44.20;;;;;;219929;1268;22636;-55
2022/05/10 15:09:09;;;;;;;10.10;3.50;;;24.40;43.50;;;;;;219988;1270;22537;-52
2022/05/10 15:14:16;;;;;;;6.20;3.30;;;24.40;44.70;;;;;;219985;1270;22548;-56
2022/05/10 15:19:24;;;;;;;13.60;4.00;;;24.40;45.00;;;;;;219629;1270;25298;-55
2022/05/10 15:24:44;;;;;;;9.30;3.70;;;24.40;44.60;;;;;;219981;1270;25253;-56
2022/05/10 15:29:50;;;;;;;7.30;3.50;;;24.30;44.10;;;;;;220187;1270;25317;-52
2022/05/10 15:34:57;;;;;;;7.00;3.60;;;24.30;44.70;;;;;;220298;1270;24299;-55
2022/05/10 15:40:05;;;;;;;10.90;3.30;;;24.30;45.60;;;;;;220169;1270;22824;-56
2022/05/10 15:45:14;;;;;;;10.90;3.80;;;24.30;46.00;;;;;;220546;1268;26761;-55
2022/05/10 15:50:28;;;;;;;9.90;3.50;;;24.40;46.50;;;;;;220145;1270;22568;-56
2022/05/10 15:55:37;;;;;;;15.70;3.70;;;24.40;46.20;;;;;;219982;1270;25367;-53
2022/05/10 16:00:42;;;;;;;10.60;3.90;;;24.40;46.20;;;;;;219386;1267;24262;-50
2022/05/10 16:05:53;;;;;;;10.10;3.90;;;24.50;46.80;;;;;;219060;1267;22576;-52
2022/05/10 16:10:57;;;;;;;;;;;24.50;46.20;;;;;;227702;1267;22542;-54
2022/05/10 16:16:28;;;;;;;9.60;4.00;;;24.50;45.70;;;;;;227669;1268;22268;-54
2022/05/10 16:21:33;;;;;;;12.30;4.20;;;24.50;45.70;;;;;;227641;1271;22367;-50
2022/05/10 16:32:03;;;;;;;12.40;4.40;;;24.60;46.10;;;;;;227860;1267;22345;-51
2022/05/10 16:37:07;;;;;;;16.10;3.90;;;24.60;46.10;;;;;;227861;1268;22382;-52
2022/05/10 16:42:20;;;;;;;17.20;4.20;;;24.50;45.90;;;;;;227841;1271;22365;-50
2022/05/10 16:47:27;;;;;;;12.20;3.90;;;24.60;46.10;;;;;;219785;1270;22717;-57
2022/05/10 16:52:33;;;;;;;14.20;3.80;;;24.50;45.20;;;;;;219725;1267;24401;-42
2022/05/10 16:57:41;;;;;;;12.80;4.00;;;24.40;44.80;;;;;;219860;1270;22847;-42
2022/05/10 17:02:47;;;;;;;9.90;4.10;;;24.30;44.90;;;;;;220294;1267;23938;-39
2022/05/10 17:07:54;;;;;;;12.00;4.10;;;24.30;45.00;;;;;;220113;1268;25226;-40
2022/05/10 17:13:06;;;;;;;8.90;4.40;;;24.30;44.80;;;;;;220565;1267;24256;-40
2022/05/10 17:18:19;;;;;;;11.70;3.60;;;24.20;44.10;;;;;;220043;1267;25362;-38
2022/05/10 17:23:36;;;;;;;6.20;3.20;;;24.00;44.50;;;;;;220246;1270;24304;-40
2022/05/10 17:29:06;;;;;;;10.60;3.30;;;23.90;44.20;;;;;;220015;1268;26838;-39
2022/05/10 17:34:14;;;;;;;7.80;3.50;;;23.90;44.00;;;;;;220637;1270;22771;-40
2022/05/10 17:39:38;;;;;;;14.50;4.20;;;23.80;44.80;;;;;;219885;1270;24357;-41
2022/05/10 17:44:44;;;;;;;7.20;3.40;;;23.80;44.40;;;;;;220235;1270;22819;-38
2022/05/10 17:49:58;;;;;;;8.10;3.20;;;23.70;44.50;;;;;;220486;1267;22620;-42
2022/05/10 17:55:14;;;;;;;11.50;3.80;;;23.70;44.80;;;;;;220047;1268;25351;-39
2022/05/10 18:00:21;;;;;;;13.50;3.60;;;23.60;44.90;;;;;;220317;1270;22841;-42
2022/05/10 18:05:28;;;;;;;8.80;3.60;;;23.60;45.00;;;;;;220327;1268;25607;-41
2022/05/10 18:10:34;;;;;;;7.50;3.50;;;23.50;45.40;;;;;;220077;1270;22534;-39
2022/05/10 18:15:45;;;;;;;11.60;3.60;;;23.40;45.10;;;;;;219750;1271;22555;-38
2022/05/10 18:20:51;;;;;;;11.60;3.60;;;23.40;45.10;;;;;;220078;1270;22691;-39
2022/05/10 18:26:01;;;;;;;16.90;3.70;;;23.40;45.50;;;;;;220271;1270;24383;-39
2022/05/10 18:31:10;;;;;;;21.60;4.20;;;23.70;46.70;;;;;;220259;1270;24273;-40
2022/05/10 18:36:15;;;;;;;29.20;4.80;;;23.90;46.90;;;;;;220058;1268;22553;-38
2022/05/10 18:41:19;;;;;;;18.40;4.00;;;23.90;48.70;;;;;;220048;1270;25556;-39
2022/05/10 18:46:25;;;;;;;35.10;5.50;;;24.00;48.80;;;;;;220198;1269;22721;-38
2022/05/10 18:51:31;;;;;;;24.30;4.00;;;24.00;48.70;;;;;;220074;1268;22704;-39
2022/05/10 18:56:39;;;;;;;18.70;4.30;;;24.00;49.70;;;;;;220372;1271;24283;-44
2022/05/10 19:01:54;;;;;;;23.90;4.20;;;24.00;48.80;;;;;;220202;1268;24422;-40
2022/05/10 19:07:02;;;;;;;12.20;3.60;;;24.10;48.40;;;;;;220174;1268;25539;-40
2022/05/10 19:12:13;;;;;;;13.80;3.80;;;24.10;48.90;;;;;;220269;1270;22631;-39
2022/05/10 19:17:23;;;;;;;11.00;3.90;;;24.10;49.10;;;;;;220418;1268;24226;-40
2022/05/10 19:22:28;;;;;;;16.00;4.00;;;24.10;49.30;;;;;;219987;1268;393108;-42
2022/05/10 19:27:33;;;;;;;8.90;3.30;;;24.10;49.70;;;;;;219740;1271;22554;-40
2022/05/10 19:32:39;;;;;;;10.20;3.40;;;24.10;50.00;;;;;;220013;1270;23938;-40
2022/05/10 19:37:46;;;;;;;8.40;3.40;;;24.00;50.20;;;;;;220416;1270;23835;-39
2022/05/10 19:42:50;;;;;;;13.60;3.90;;;24.00;49.00;;;;;;220014;1270;22565;-38
2022/05/10 19:47:56;;;;;;;9.50;3.40;;;24.00;48.90;;;;;;219949;1271;22896;-39
2022/05/10 19:53:07;;;;;;;10.70;4.10;;;24.00;48.90;;;;;;220035;1271;22554;-42
2022/05/10 19:58:11;;;;;;;11.90;3.60;;;23.90;49.00;;;;;;220135;1270;22703;-43
2022/05/10 20:08:46;;;;;;;8.90;3.40;;;23.90;49.30;;;;;;220372;1268;22553;-38
2022/05/10 20:13:54;;;;;;;11.20;3.90;;;23.90;50.00;;;;;;220344;1271;25249;-40
2022/05/10 20:19:28;;;;;;;12.10;3.40;;;24.00;51.60;;;;;;220140;1270;25663;-41
2022/05/10 20:25:02;;;;;;;8.90;3.40;;;24.00;51.30;;;;;;220103;1271;25345;-40
2022/05/10 20:30:09;;;;;;;8.30;3.30;;;24.00;50.70;;;;;;220198;1271;24362;-42
2022/05/10 20:35:43;;;;;;;9.30;3.50;;;24.00;50.70;;;;;;220179;1271;22536;-40
2022/05/10 20:40:56;;;;;;;10.70;3.00;;;24.00;50.60;;;;;;220151;1271;23262;-42
2022/05/10 20:46:19;;;;;;;9.00;3.90;;;24.00;50.40;;;;;;220059;1271;24258;-40
2022/05/10 20:51:28;;;;;;;6.80;3.40;;;24.00;50.60;;;;;;220258;1271;25475;-40
2022/05/10 20:56:46;;;;;;;17.00;4.30;;;24.00;50.30;;;;;;220197;1268;22531;-41
2022/05/10 21:01:51;;;;;;;4.10;3.20;;;24.00;49.90;;;;;;220125;1268;22511;-40
2022/05/10 21:12:24;;;;;;;12.90;4.20;;;24.00;49.80;;;;;;220636;1268;22573;-41
2022/05/10 21:17:47;;;;;;;7.80;3.60;;;24.00;49.70;;;;;;220431;1268;25625;-41
2022/05/10 21:23:13;;;;;;;7.00;3.60;;;24.00;49.70;;;;;;220553;1268;25178;-42
2022/05/10 21:28:36;;;;;;;4.60;3.50;;;24.00;49.80;;;;;;220016;1271;24284;-42
2022/05/10 21:33:43;;;;;;;5.80;3.30;;;23.90;49.90;;;;;;220265;1271;22548;-41
2022/05/10 21:38:48;;;;;;;15.40;5.70;;;23.90;49.90;;;;;;219819;1268;22550;-42
2022/05/10 21:43:59;;;;;;;13.20;4.60;;;23.90;51.40;;;;;;220217;1268;22618;-43
2022/05/10 21:49:04;;;;;;;16.80;4.90;;;23.90;50.90;;;;;;219816;1271;24071;-41
2022/05/10 21:54:09;;;;;;;9.30;3.90;;;23.90;51.70;;;;;;220191;1268;25338;-41
2022/05/10 21:59:13;;;;;;;8.60;4.00;;;24.00;51.70;;;;;;219995;1268;24277;-42
2022/05/10 22:04:18;;;;;;;9.20;4.00;;;24.00;51.20;;;;;;220196;1268;22589;-40
2022/05/10 22:09:23;;;;;;;8.00;4.10;;;24.00;51.20;;;;;;220490;1268;24427;-41
2022/05/10 22:14:27;;;;;;;9.20;3.70;;;24.00;51.60;;;;;;220198;1268;24249;-42
2022/05/10 22:19:32;;;;;;;8.60;3.60;;;24.10;51.50;;;;;;220332;1268;22704;-41
2022/05/10 22:24:50;;;;;;;10.00;4.20;;;24.10;51.50;;;;;;220314;1268;24313;-41
2022/05/10 22:30:23;;;;;;;9.00;4.00;;;24.00;51.50;;;;;;220249;1268;22568;-40
2022/05/10 22:35:32;;;;;;;6.80;3.60;;;24.10;51.80;;;;;;219895;1268;22708;-39
2022/05/10 22:40:39;;;;;;;9.80;4.50;;;24.10;51.70;;;;;;220287;1268;22541;-41
2022/05/10 22:45:47;;;;;;;8.20;3.20;;;24.10;51.80;;;;;;219870;1268;25547;-42
2022/05/10 22:51:02;;;;;;;9.20;3.20;;;24.10;51.90;;;;;;220061;1270;24300;-41
2022/05/10 22:56:09;;;;;;;7.00;3.70;;;24.10;52.50;;;;;;221160;1268;24523;-43
2022/05/10 23:01:13;;;;;;;6.80;3.60;;;24.00;52.10;;;;;;220351;1268;24427;-41
2022/05/10 23:06:18;;;;;;;6.20;3.40;;;24.00;52.80;;;;;;220404;1269;27647;-41
2022/05/10 23:11:26;;;;;;;6.90;3.90;;;24.00;52.80;;;;;;220476;1268;26947;-41
2022/05/10 23:16:32;;;;;;;7.30;3.40;;;24.00;52.30;;;;;;220440;1268;24297;-41
2022/05/10 23:21:39;;;;;;;8.00;3.60;;;24.00;52.40;;;;;;220286;1268;26791;-42
2022/05/10 23:26:51;;;;;;;5.70;3.40;;;24.00;52.30;;;;;;220337;1268;23082;-41
2022/05/10 23:31:57;;;;;;;7.30;3.50;;;23.90;52.30;;;;;;220237;1268;22550;-40
2022/05/10 23:37:05;;;;;;;5.70;3.30;;;23.90;52.30;;;;;;220134;1270;25460;-40
2022/05/10 23:42:10;;;;;;;5.70;3.40;;;23.90;52.30;;;;;;220071;1268;25531;-41
2022/05/10 23:47:17;;;;;;;8.60;3.50;;;23.90;52.30;;;;;;220378;1268;22785;-42
2022/05/10 23:52:22;;;;;;;7.70;3.40;;;23.90;52.20;;;;;;220548;1268;24441;-43
2022/05/10 23:57:27;;;;;;;4.40;2.70;;;23.90;52.20;;;;;;220004;1271;25246;-42
